sensor_id;sensor_type;location;lat;lon;timestamp;temperature;humidity
19888;DHT22;10106;51.332;12.336;2022-11-03T00:01:37;6.40;99.90
19888;DHT22;10106;51.332;12.336;2022-11-03T00:04:03;6.40;99.90
19888;DHT22;10106;51.332;12.336;2022-11-03T00:06:29;6.40;99.90
19888;DHT22;10106;51.332;12.336;2022-11-03T00:08:58;6.30;99.90
19888;DHT22;10106;51.332;12.336;2022-11-03T00:11:24;6.30;99.90
19888;DHT22;10106;51.332;12.336;2022-11-03T00:13:52;6.30;99.90
19888;DHT22;10106;51.332;12.336;2022-11-03T00:16:20;6.30;99.90
19888;DHT22;10106;51.332;12.336;2022-11-03T00:18:46;6.30;99.90
19888;DHT22;10106;51.332;12.336;2022-11-03T00:21:12;6.20;99.90
19888;DHT22;10106;51.332;12.336;2022-11-03T00:23:38;6.20;99.90
19888;DHT22;10106;51.332;12.336;2022-11-03T00:26:05;6.30;99.90
19888;DHT22;10106;51.332;12.336;2022-11-03T00:28:31;6.30;99.90
19888;DHT22;10106;51.332;12.336;2022-11-03T00:30:58;6.30;99.90
19888;DHT22;10106;51.332;12.336;2022-11-03T00:33:24;6.30;99.90
19888;DHT22;10106;51.332;12.336;2022-11-03T00:35:58;6.30;99.90
19888;DHT22;10106;51.332;12.336;2022-11-03T00:38:24;6.40;99.90
19888;DHT22;10106;51.332;12.336;2022-11-03T00:40:56;6.40;99.90
19888;DHT22;10106;51.332;12.336;2022-11-03T00:43:22;6.40;99.90
19888;DHT22;10106;51.332;12.336;2022-11-03T00:45:48;6.40;99.90
19888;DHT22;10106;51.332;12.336;2022-11-03T00:48:13;6.40;99.90
19888;DHT22;10106;51.332;12.336;2022-11-03T00:51:01;6.40;99.90
19888;DHT22;10106;51.332;12.336;2022-11-03T00:53:27;6.40;99.90
19888;DHT22;10106;51.332;12.336;2022-11-03T00:55:53;6.30;99.90
19888;DHT22;10106;51.332;12.336;2022-11-03T00:58:18;6.30;99.90
19888;DHT22;10106;51.332;12.336;2022-11-03T01:00:44;6.40;99.90
19888;DHT22;10106;51.332;12.336;2022-11-03T01:03:09;6.40;99.90
19888;DHT22;10106;51.332;12.336;2022-11-03T01:05:39;6.40;99.90
19888;DHT22;10106;51.332;12.336;2022-11-03T01:08:34;6.40;99.90
19888;DHT22;10106;51.332;12.336;2022-11-03T01:13:53;6.30;99.90
19888;DHT22;10106;51.332;12.336;2022-11-03T01:16:19;6.30;99.90
19888;DHT22;10106;51.332;12.336;2022-11-03T01:18:44;6.30;99.90
19888;DHT22;10106;51.332;12.336;2022-11-03T01:21:09;6.30;99.90
19888;DHT22;10106;51.332;12.336;2022-11-03T01:23:35;6.20;99.90
19888;DHT22;10106;51.332;12.336;2022-11-03T01:26:04;6.20;99.90
19888;DHT22;10106;51.332;12.336;2022-11-03T01:28:30;6.20;99.90
19888;DHT22;10106;51.332;12.336;2022-11-03T01:31:01;6.20;99.90
19888;DHT22;10106;51.332;12.336;2022-11-03T01:33:27;6.20;99.90
19888;DHT22;10106;51.332;12.336;2022-11-03T01:35:52;6.20;99.90
19888;DHT22;10106;51.332;12.336;2022-11-03T01:38:18;6.20;99.90
19888;DHT22;10106;51.332;12.336;2022-11-03T01:40:43;6.20;99.90
19888;DHT22;10106;51.332;12.336;2022-11-03T01:43:16;6.20;99.90
19888;DHT22;10106;51.332;12.336;2022-11-03T01:45:42;6.20;99.90
19888;DHT22;10106;51.332;12.336;2022-11-03T01:48:08;6.20;99.90
19888;DHT22;10106;51.332;12.336;2022-11-03T01:50:33;6.20;99.90
19888;DHT22;10106;51.332;12.336;2022-11-03T01:52:59;6.20;99.90
19888;DHT22;10106;51.332;12.336;2022-11-03T01:55:26;6.20;99.90
19888;DHT22;10106;51.332;12.336;2022-11-03T01:57:53;6.20;99.90
19888;DHT22;10106;51.332;12.336;2022-11-03T02:00:20;6.20;99.90
19888;DHT22;10106;51.332;12.336;2022-11-03T02:02:46;6.20;99.90
19888;DHT22;10106;51.332;12.336;2022-11-03T02:05:12;6.20;99.90
19888;DHT22;10106;51.332;12.336;2022-11-03T02:10:07;6.20;99.90
19888;DHT22;10106;51.332;12.336;2022-11-03T02:12:33;6.20;99.90
19888;DHT22;10106;51.332;12.336;2022-11-03T02:15:04;6.20;99.90
19888;DHT22;10106;51.332;12.336;2022-11-03T02:17:30;6.20;99.90
19888;DHT22;10106;51.332;12.336;2022-11-03T02:20:02;6.20;99.90
19888;DHT22;10106;51.332;12.336;2022-11-03T02:22:32;6.10;99.90
19888;DHT22;10106;51.332;12.336;2022-11-03T02:27:40;6.10;99.90
19888;DHT22;10106;51.332;12.336;2022-11-03T02:30:06;6.20;99.90
19888;DHT22;10106;51.332;12.336;2022-11-03T02:32:32;6.20;99.90
19888;DHT22;10106;51.332;12.336;2022-11-03T02:37:41;6.30;99.90
19888;DHT22;10106;51.332;12.336;2022-11-03T02:40:10;6.30;99.90
19888;DHT22;10106;51.332;12.336;2022-11-03T02:42:37;6.40;99.90
19888;DHT22;10106;51.332;12.336;2022-11-03T02:45:06;6.40;99.90
19888;DHT22;10106;51.332;12.336;2022-11-03T02:47:32;6.50;99.90
19888;DHT22;10106;51.332;12.336;2022-11-03T02:49:59;6.40;99.90
19888;DHT22;10106;51.332;12.336;2022-11-03T02:52:32;6.40;99.90
19888;DHT22;10106;51.332;12.336;2022-11-03T02:54:58;6.40;99.90
19888;DHT22;10106;51.332;12.336;2022-11-03T02:57:26;6.40;99.90
19888;DHT22;10106;51.332;12.336;2022-11-03T03:00:02;6.40;99.90
19888;DHT22;10106;51.332;12.336;2022-11-03T03:05:25;6.40;99.90
19888;DHT22;10106;51.332;12.336;2022-11-03T03:07:55;6.50;99.90
19888;DHT22;10106;51.332;12.336;2022-11-03T03:10:23;6.50;99.90
19888;DHT22;10106;51.332;12.336;2022-11-03T03:12:50;6.50;99.90
19888;DHT22;10106;51.332;12.336;2022-11-03T03:15:16;6.50;99.90
19888;DHT22;10106;51.332;12.336;2022-11-03T03:17:49;6.50;99.90
19888;DHT22;10106;51.332;12.336;2022-11-03T03:23:15;6.50;99.90
19888;DHT22;10106;51.332;12.336;2022-11-03T03:25:34;6.40;99.90
19888;DHT22;10106;51.332;12.336;2022-11-03T03:28:02;6.40;99.90
19888;DHT22;10106;51.332;12.336;2022-11-03T03:30:29;6.40;99.90
19888;DHT22;10106;51.332;12.336;2022-11-03T03:32:55;6.30;99.90
19888;DHT22;10106;51.332;12.336;2022-11-03T03:35:22;6.30;99.90
19888;DHT22;10106;51.332;12.336;2022-11-03T03:37:50;6.30;99.90
19888;DHT22;10106;51.332;12.336;2022-11-03T03:40:19;6.30;99.90
19888;DHT22;10106;51.332;12.336;2022-11-03T03:42:47;6.20;99.90
19888;DHT22;10106;51.332;12.336;2022-11-03T03:45:12;6.20;99.90
19888;DHT22;10106;51.332;12.336;2022-11-03T03:47:38;6.20;99.90
19888;DHT22;10106;51.332;12.336;2022-11-03T03:50:04;6.10;99.90
19888;DHT22;10106;51.332;12.336;2022-11-03T03:52:30;6.10;99.90
19888;DHT22;10106;51.332;12.336;2022-11-03T03:54:58;6.10;99.90
19888;DHT22;10106;51.332;12.336;2022-11-03T03:57:23;6.10;99.90
19888;DHT22;10106;51.332;12.336;2022-11-03T03:59:49;6.10;99.90
19888;DHT22;10106;51.332;12.336;2022-11-03T04:02:15;6.00;99.90
19888;DHT22;10106;51.332;12.336;2022-11-03T04:04:40;6.10;99.90
19888;DHT22;10106;51.332;12.336;2022-11-03T04:07:06;6.10;99.90
19888;DHT22;10106;51.332;12.336;2022-11-03T04:09:50;6.10;99.90
19888;DHT22;10106;51.332;12.336;2022-11-03T04:12:15;6.00;99.90
19888;DHT22;10106;51.332;12.336;2022-11-03T04:15:00;6.00;99.90
19888;DHT22;10106;51.332;12.336;2022-11-03T04:17:44;6.00;99.90
19888;DHT22;10106;51.332;12.336;2022-11-03T04:20:29;6.00;99.90
19888;DHT22;10106;51.332;12.336;2022-11-03T04:23:13;6.00;99.90
19888;DHT22;10106;51.332;12.336;2022-11-03T04:25:38;5.90;99.90
19888;DHT22;10106;51.332;12.336;2022-11-03T04:28:07;5.90;99.90
19888;DHT22;10106;51.332;12.336;2022-11-03T04:30:34;5.90;99.90
19888;DHT22;10106;51.332;12.336;2022-11-03T04:32:59;6.00;99.90
19888;DHT22;10106;51.332;12.336;2022-11-03T04:35:26;5.90;99.90
19888;DHT22;10106;51.332;12.336;2022-11-03T04:37:57;5.80;99.90
19888;DHT22;10106;51.332;12.336;2022-11-03T04:40:23;5.80;99.90
19888;DHT22;10106;51.332;12.336;2022-11-03T04:42:48;5.80;99.90
19888;DHT22;10106;51.332;12.336;2022-11-03T04:47:45;5.70;99.90
19888;DHT22;10106;51.332;12.336;2022-11-03T04:50:14;5.70;99.90
19888;DHT22;10106;51.332;12.336;2022-11-03T04:52:39;5.60;99.90
19888;DHT22;10106;51.332;12.336;2022-11-03T04:55:07;5.70;99.90
19888;DHT22;10106;51.332;12.336;2022-11-03T04:57:34;5.60;99.90
19888;DHT22;10106;51.332;12.336;2022-11-03T05:00:00;5.60;99.90
19888;DHT22;10106;51.332;12.336;2022-11-03T05:02:25;5.50;99.90
19888;DHT22;10106;51.332;12.336;2022-11-03T05:04:51;5.50;99.90
19888;DHT22;10106;51.332;12.336;2022-11-03T05:07:33;5.40;99.90
19888;DHT22;10106;51.332;12.336;2022-11-03T05:09:59;5.40;99.90
19888;DHT22;10106;51.332;12.336;2022-11-03T05:12:25;5.40;99.90
19888;DHT22;10106;51.332;12.336;2022-11-03T05:14:51;5.40;99.90
19888;DHT22;10106;51.332;12.336;2022-11-03T05:17:20;5.40;99.90
19888;DHT22;10106;51.332;12.336;2022-11-03T05:19:47;5.40;99.90
19888;DHT22;10106;51.332;12.336;2022-11-03T05:22:14;5.40;99.90
19888;DHT22;10106;51.332;12.336;2022-11-03T05:24:40;5.40;99.90
19888;DHT22;10106;51.332;12.336;2022-11-03T05:27:08;5.40;99.90
19888;DHT22;10106;51.332;12.336;2022-11-03T05:29:35;5.40;99.90
19888;DHT22;10106;51.332;12.336;2022-11-03T05:32:01;5.30;99.90
19888;DHT22;10106;51.332;12.336;2022-11-03T05:37:40;5.30;99.90
19888;DHT22;10106;51.332;12.336;2022-11-03T05:39:42;5.30;99.90
19888;DHT22;10106;51.332;12.336;2022-11-03T05:44:46;5.40;99.90
19888;DHT22;10106;51.332;12.336;2022-11-03T05:47:23;5.40;99.90
19888;DHT22;10106;51.332;12.336;2022-11-03T05:49:49;5.40;99.90
19888;DHT22;10106;51.332;12.336;2022-11-03T05:52:18;5.40;99.90
19888;DHT22;10106;51.332;12.336;2022-11-03T05:54:45;5.50;99.90
19888;DHT22;10106;51.332;12.336;2022-11-03T05:57:14;5.50;99.90
19888;DHT22;10106;51.332;12.336;2022-11-03T05:59:41;5.50;99.90
19888;DHT22;10106;51.332;12.336;2022-11-03T06:07:22;5.60;99.90
19888;DHT22;10106;51.332;12.336;2022-11-03T06:09:48;5.70;99.90
19888;DHT22;10106;51.332;12.336;2022-11-03T06:12:15;5.70;99.90
19888;DHT22;10106;51.332;12.336;2022-11-03T06:14:42;5.70;99.90
19888;DHT22;10106;51.332;12.336;2022-11-03T06:17:12;5.80;99.90
19888;DHT22;10106;51.332;12.336;2022-11-03T06:19:46;5.80;99.90
19888;DHT22;10106;51.332;12.336;2022-11-03T06:22:21;5.90;99.90
19888;DHT22;10106;51.332;12.336;2022-11-03T06:24:47;6.00;99.90
19888;DHT22;10106;51.332;12.336;2022-11-03T06:27:14;6.00;99.90
19888;DHT22;10106;51.332;12.336;2022-11-03T06:29:40;6.10;99.90
19888;DHT22;10106;51.332;12.336;2022-11-03T06:32:09;6.20;99.90
19888;DHT22;10106;51.332;12.336;2022-11-03T06:34:36;6.30;99.90
19888;DHT22;10106;51.332;12.336;2022-11-03T06:37:14;6.40;99.90
19888;DHT22;10106;51.332;12.336;2022-11-03T06:39:42;6.50;99.90
19888;DHT22;10106;51.332;12.336;2022-11-03T06:42:09;6.60;99.90
19888;DHT22;10106;51.332;12.336;2022-11-03T06:44:35;6.70;99.90
19888;DHT22;10106;51.332;12.336;2022-11-03T06:47:07;6.80;99.90
19888;DHT22;10106;51.332;12.336;2022-11-03T06:49:37;7.00;99.90
19888;DHT22;10106;51.332;12.336;2022-11-03T06:52:46;7.10;99.90
19888;DHT22;10106;51.332;12.336;2022-11-03T06:57:34;7.30;99.90
19888;DHT22;10106;51.332;12.336;2022-11-03T07:00:05;7.40;99.90
19888;DHT22;10106;51.332;12.336;2022-11-03T07:05:09;7.90;99.90
19888;DHT22;10106;51.332;12.336;2022-11-03T07:07:41;8.10;99.90
19888;DHT22;10106;51.332;12.336;2022-11-03T07:10:07;8.50;99.90
19888;DHT22;10106;51.332;12.336;2022-11-03T07:12:33;8.80;99.90
19888;DHT22;10106;51.332;12.336;2022-11-03T07:14:58;9.40;99.90
19888;DHT22;10106;51.332;12.336;2022-11-03T07:17:26;10.50;99.90
19888;DHT22;10106;51.332;12.336;2022-11-03T07:19:52;11.40;99.90
19888;DHT22;10106;51.332;12.336;2022-11-03T07:22:22;12.00;99.90
19888;DHT22;10106;51.332;12.336;2022-11-03T07:24:52;12.50;99.90
19888;DHT22;10106;51.332;12.336;2022-11-03T07:27:30;12.90;99.90
19888;DHT22;10106;51.332;12.336;2022-11-03T07:30:18;13.20;99.90
19888;DHT22;10106;51.332;12.336;2022-11-03T07:32:45;13.50;99.90
19888;DHT22;10106;51.332;12.336;2022-11-03T07:37:44;14.00;99.90
19888;DHT22;10106;51.332;12.336;2022-11-03T07:40:16;13.50;99.90
19888;DHT22;10106;51.332;12.336;2022-11-03T07:42:42;13.60;99.90
19888;DHT22;10106;51.332;12.336;2022-11-03T07:48:03;15.20;99.90
19888;DHT22;10106;51.332;12.336;2022-11-03T07:50:30;15.60;99.90
19888;DHT22;10106;51.332;12.336;2022-11-03T07:52:55;16.10;99.90
19888;DHT22;10106;51.332;12.336;2022-11-03T07:55:21;16.40;99.90
19888;DHT22;10106;51.332;12.336;2022-11-03T07:57:46;18.00;99.90
19888;DHT22;10106;51.332;12.336;2022-11-03T08:00:14;18.40;98.00
19888;DHT22;10106;51.332;12.336;2022-11-03T08:03:04;18.50;96.20
19888;DHT22;10106;51.332;12.336;2022-11-03T08:07:56;19.50;92.30
19888;DHT22;10106;51.332;12.336;2022-11-03T08:10:21;19.70;92.40
19888;DHT22;10106;51.332;12.336;2022-11-03T08:12:47;20.00;89.10
19888;DHT22;10106;51.332;12.336;2022-11-03T08:15:12;19.30;90.80
19888;DHT22;10106;51.332;12.336;2022-11-03T08:17:40;19.30;91.60
19888;DHT22;10106;51.332;12.336;2022-11-03T08:20:06;19.20;92.00
19888;DHT22;10106;51.332;12.336;2022-11-03T08:22:31;19.70;91.80
19888;DHT22;10106;51.332;12.336;2022-11-03T08:27:23;20.60;87.40
19888;DHT22;10106;51.332;12.336;2022-11-03T08:29:48;21.00;82.20
19888;DHT22;10106;51.332;12.336;2022-11-03T08:32:14;21.10;82.70
19888;DHT22;10106;51.332;12.336;2022-11-03T08:34:40;21.20;81.70
19888;DHT22;10106;51.332;12.336;2022-11-03T08:37:05;20.70;81.40
19888;DHT22;10106;51.332;12.336;2022-11-03T08:39:31;20.50;82.10
19888;DHT22;10106;51.332;12.336;2022-11-03T08:41:57;20.80;82.50
19888;DHT22;10106;51.332;12.336;2022-11-03T08:44:22;20.50;81.90
19888;DHT22;10106;51.332;12.336;2022-11-03T08:46:48;20.70;82.50
19888;DHT22;10106;51.332;12.336;2022-11-03T08:49:13;21.00;81.10
19888;DHT22;10106;51.332;12.336;2022-11-03T08:54:05;21.40;77.90
19888;DHT22;10106;51.332;12.336;2022-11-03T08:56:30;21.40;77.80
19888;DHT22;10106;51.332;12.336;2022-11-03T08:58:56;21.20;76.30
19888;DHT22;10106;51.332;12.336;2022-11-03T09:01:21;19.90;78.80
19888;DHT22;10106;51.332;12.336;2022-11-03T09:03:47;19.70;80.60
19888;DHT22;10106;51.332;12.336;2022-11-03T09:06:12;19.80;80.60
19888;DHT22;10106;51.332;12.336;2022-11-03T09:08:38;19.50;81.70
19888;DHT22;10106;51.332;12.336;2022-11-03T09:11:04;18.80;82.20
19888;DHT22;10106;51.332;12.336;2022-11-03T09:13:33;17.50;87.40
19888;DHT22;10106;51.332;12.336;2022-11-03T09:15:58;16.40;93.10
19888;DHT22;10106;51.332;12.336;2022-11-03T09:18:53;15.90;95.50
19888;DHT22;10106;51.332;12.336;2022-11-03T09:21:19;15.00;98.90
19888;DHT22;10106;51.332;12.336;2022-11-03T09:23:44;14.60;99.90
19888;DHT22;10106;51.332;12.336;2022-11-03T09:26:10;14.20;99.90
19888;DHT22;10106;51.332;12.336;2022-11-03T09:28:36;13.90;99.90
19888;DHT22;10106;51.332;12.336;2022-11-03T09:31:01;14.00;99.90
19888;DHT22;10106;51.332;12.336;2022-11-03T09:33:27;13.60;99.90
19888;DHT22;10106;51.332;12.336;2022-11-03T09:35:52;13.40;99.90
19888;DHT22;10106;51.332;12.336;2022-11-03T09:38:18;13.00;99.90
19888;DHT22;10106;51.332;12.336;2022-11-03T09:40:43;12.90;99.90
19888;DHT22;10106;51.332;12.336;2022-11-03T09:43:10;12.90;99.90
19888;DHT22;10106;51.332;12.336;2022-11-03T09:45:37;12.80;99.90
19888;DHT22;10106;51.332;12.336;2022-11-03T09:48:03;12.90;99.90
19888;DHT22;10106;51.332;12.336;2022-11-03T09:50:30;12.90;99.90
19888;DHT22;10106;51.332;12.336;2022-11-03T09:52:56;13.20;99.90
19888;DHT22;10106;51.332;12.336;2022-11-03T09:55:25;13.30;99.90
19888;DHT22;10106;51.332;12.336;2022-11-03T09:57:58;13.50;99.90
19888;DHT22;10106;51.332;12.336;2022-11-03T10:00:25;13.60;99.90
19888;DHT22;10106;51.332;12.336;2022-11-03T10:02:52;13.60;99.90
19888;DHT22;10106;51.332;12.336;2022-11-03T10:05:23;13.70;99.90
19888;DHT22;10106;51.332;12.336;2022-11-03T10:07:49;13.60;99.90
19888;DHT22;10106;51.332;12.336;2022-11-03T10:10:18;13.60;99.90
19888;DHT22;10106;51.332;12.336;2022-11-03T10:12:46;13.60;99.90
19888;DHT22;10106;51.332;12.336;2022-11-03T10:15:17;13.70;99.90
19888;DHT22;10106;51.332;12.336;2022-11-03T10:17:44;13.60;99.90
19888;DHT22;10106;51.332;12.336;2022-11-03T10:20:13;13.60;99.90
19888;DHT22;10106;51.332;12.336;2022-11-03T10:22:40;13.70;99.90
19888;DHT22;10106;51.332;12.336;2022-11-03T10:25:33;13.80;99.90
19888;DHT22;10106;51.332;12.336;2022-11-03T10:30:51;14.10;99.90
19888;DHT22;10106;51.332;12.336;2022-11-03T10:35:56;14.00;99.90
19888;DHT22;10106;51.332;12.336;2022-11-03T10:38:30;14.10;99.90
19888;DHT22;10106;51.332;12.336;2022-11-03T10:41:21;14.10;99.90
19888;DHT22;10106;51.332;12.336;2022-11-03T10:44:16;14.20;99.90
19888;DHT22;10106;51.332;12.336;2022-11-03T10:47:00;14.30;99.90
19888;DHT22;10106;51.332;12.336;2022-11-03T10:49:30;14.50;99.90
19888;DHT22;10106;51.332;12.336;2022-11-03T10:52:18;14.50;99.90
19888;DHT22;10106;51.332;12.336;2022-11-03T10:54:45;14.70;99.90
19888;DHT22;10106;51.332;12.336;2022-11-03T10:57:12;14.80;99.90
19888;DHT22;10106;51.332;12.336;2022-11-03T10:59:38;14.80;99.90
19888;DHT22;10106;51.332;12.336;2022-11-03T11:04:53;14.80;99.90
19888;DHT22;10106;51.332;12.336;2022-11-03T11:07:25;14.90;99.90
19888;DHT22;10106;51.332;12.336;2022-11-03T11:09:53;15.10;99.90
19888;DHT22;10106;51.332;12.336;2022-11-03T11:12:30;15.30;99.90
19888;DHT22;10106;51.332;12.336;2022-11-03T11:14:59;15.30;99.90
19888;DHT22;10106;51.332;12.336;2022-11-03T11:22:47;15.30;99.90
19888;DHT22;10106;51.332;12.336;2022-11-03T11:25:13;15.30;99.90
19888;DHT22;10106;51.332;12.336;2022-11-03T11:33:12;15.40;99.90
19888;DHT22;10106;51.332;12.336;2022-11-03T11:41:08;15.20;99.90
19888;DHT22;10106;51.332;12.336;2022-11-03T11:43:34;15.20;99.90
19888;DHT22;10106;51.332;12.336;2022-11-03T11:51:33;15.30;99.90
19888;DHT22;10106;51.332;12.336;2022-11-03T11:54:04;15.40;99.90
19888;DHT22;10106;51.332;12.336;2022-11-03T11:56:31;15.50;99.90
19888;DHT22;10106;51.332;12.336;2022-11-03T11:58:56;15.40;99.90
19888;DHT22;10106;51.332;12.336;2022-11-03T12:04:16;15.30;99.90
19888;DHT22;10106;51.332;12.336;2022-11-03T12:06:42;15.20;99.90
19888;DHT22;10106;51.332;12.336;2022-11-03T12:09:16;15.10;99.90
19888;DHT22;10106;51.332;12.336;2022-11-03T12:11:50;15.10;99.90
19888;DHT22;10106;51.332;12.336;2022-11-03T12:14:23;15.10;99.90
19888;DHT22;10106;51.332;12.336;2022-11-03T12:16:49;15.00;99.90
19888;DHT22;10106;51.332;12.336;2022-11-03T12:19:37;14.90;99.90
19888;DHT22;10106;51.332;12.336;2022-11-03T12:22:08;14.80;99.90
19888;DHT22;10106;51.332;12.336;2022-11-03T12:24:37;14.80;99.90
19888;DHT22;10106;51.332;12.336;2022-11-03T12:27:57;14.80;99.90
19888;DHT22;10106;51.332;12.336;2022-11-03T12:30:16;14.80;99.90
19888;DHT22;10106;51.332;12.336;2022-11-03T12:32:43;14.90;99.90
19888;DHT22;10106;51.332;12.336;2022-11-03T12:35:10;15.00;99.90
19888;DHT22;10106;51.332;12.336;2022-11-03T12:37:38;15.00;99.90
19888;DHT22;10106;51.332;12.336;2022-11-03T12:40:04;15.00;99.90
19888;DHT22;10106;51.332;12.336;2022-11-03T12:42:30;15.00;99.90
19888;DHT22;10106;51.332;12.336;2022-11-03T12:44:55;15.00;99.90
19888;DHT22;10106;51.332;12.336;2022-11-03T12:47:21;14.90;99.90
19888;DHT22;10106;51.332;12.336;2022-11-03T12:49:47;14.90;99.90
19888;DHT22;10106;51.332;12.336;2022-11-03T12:52:12;14.90;99.90
19888;DHT22;10106;51.332;12.336;2022-11-03T12:54:38;14.90;99.90
19888;DHT22;10106;51.332;12.336;2022-11-03T12:57:04;14.80;99.90
19888;DHT22;10106;51.332;12.336;2022-11-03T12:59:29;14.70;99.90
19888;DHT22;10106;51.332;12.336;2022-11-03T13:01:55;14.70;99.90
19888;DHT22;10106;51.332;12.336;2022-11-03T13:04:20;14.60;99.90
19888;DHT22;10106;51.332;12.336;2022-11-03T13:06:46;14.50;99.90
19888;DHT22;10106;51.332;12.336;2022-11-03T13:09:12;14.50;99.90
19888;DHT22;10106;51.332;12.336;2022-11-03T13:11:37;14.50;99.90
19888;DHT22;10106;51.332;12.336;2022-11-03T13:14:21;14.50;99.90
19888;DHT22;10106;51.332;12.336;2022-11-03T13:16:47;14.50;99.90
19888;DHT22;10106;51.332;12.336;2022-11-03T13:19:12;14.60;99.90
19888;DHT22;10106;51.332;12.336;2022-11-03T13:21:38;14.70;99.90
19888;DHT22;10106;51.332;12.336;2022-11-03T13:24:04;14.80;99.90
19888;DHT22;10106;51.332;12.336;2022-11-03T13:26:30;14.90;99.90
19888;DHT22;10106;51.332;12.336;2022-11-03T13:28:55;15.00;99.90
19888;DHT22;10106;51.332;12.336;2022-11-03T13:31:21;15.00;99.90
19888;DHT22;10106;51.332;12.336;2022-11-03T13:33:49;15.10;99.90
19888;DHT22;10106;51.332;12.336;2022-11-03T13:36:16;15.10;99.90
19888;DHT22;10106;51.332;12.336;2022-11-03T13:38:42;15.10;99.90
19888;DHT22;10106;51.332;12.336;2022-11-03T13:41:08;15.00;99.90
19888;DHT22;10106;51.332;12.336;2022-11-03T13:43:33;14.90;99.90
19888;DHT22;10106;51.332;12.336;2022-11-03T13:45:59;14.80;99.90
19888;DHT22;10106;51.332;12.336;2022-11-03T13:48:27;14.70;99.90
19888;DHT22;10106;51.332;12.336;2022-11-03T13:50:53;14.70;99.90
19888;DHT22;10106;51.332;12.336;2022-11-03T13:53:20;14.70;99.90
19888;DHT22;10106;51.332;12.336;2022-11-03T13:55:46;14.70;99.90
19888;DHT22;10106;51.332;12.336;2022-11-03T13:58:11;14.60;99.90
19888;DHT22;10106;51.332;12.336;2022-11-03T14:00:37;14.60;99.90
19888;DHT22;10106;51.332;12.336;2022-11-03T14:03:03;14.60;99.90
19888;DHT22;10106;51.332;12.336;2022-11-03T14:05:30;14.60;99.90
19888;DHT22;10106;51.332;12.336;2022-11-03T14:07:55;14.60;99.90
19888;DHT22;10106;51.332;12.336;2022-11-03T14:10:21;14.50;99.90
19888;DHT22;10106;51.332;12.336;2022-11-03T14:12:46;14.50;99.90
19888;DHT22;10106;51.332;12.336;2022-11-03T14:15:12;14.40;99.90
19888;DHT22;10106;51.332;12.336;2022-11-03T14:17:38;14.40;99.90
19888;DHT22;10106;51.332;12.336;2022-11-03T14:20:06;14.30;99.90
19888;DHT22;10106;51.332;12.336;2022-11-03T14:22:34;14.30;99.90
19888;DHT22;10106;51.332;12.336;2022-11-03T14:25:00;14.40;99.90
19888;DHT22;10106;51.332;12.336;2022-11-03T14:27:25;14.30;99.90
19888;DHT22;10106;51.332;12.336;2022-11-03T14:29:51;14.30;99.90
19888;DHT22;10106;51.332;12.336;2022-11-03T14:32:18;14.30;99.90
19888;DHT22;10106;51.332;12.336;2022-11-03T14:34:44;14.20;99.90
19888;DHT22;10106;51.332;12.336;2022-11-03T14:37:11;14.20;99.90
19888;DHT22;10106;51.332;12.336;2022-11-03T14:39:37;14.20;99.90
19888;DHT22;10106;51.332;12.336;2022-11-03T14:42:04;14.10;99.90
19888;DHT22;10106;51.332;12.336;2022-11-03T14:44:32;14.10;99.90
19888;DHT22;10106;51.332;12.336;2022-11-03T14:46:59;14.00;99.90
19888;DHT22;10106;51.332;12.336;2022-11-03T14:49:26;13.90;99.90
19888;DHT22;10106;51.332;12.336;2022-11-03T14:51:52;13.90;99.90
19888;DHT22;10106;51.332;12.336;2022-11-03T16:53:54;13.80;99.90
19888;DHT22;10106;51.332;12.336;2022-11-03T16:56:22;12.10;99.90
19888;DHT22;10106;51.332;12.336;2022-11-03T16:58:48;11.90;99.90
19888;DHT22;10106;51.332;12.336;2022-11-03T17:01:13;11.90;99.90
19888;DHT22;10106;51.332;12.336;2022-11-03T17:03:39;11.80;99.90
19888;DHT22;10106;51.332;12.336;2022-11-03T17:06:05;11.70;99.90
19888;DHT22;10106;51.332;12.336;2022-11-03T17:08:30;11.70;99.90
19888;DHT22;10106;51.332;12.336;2022-11-03T17:10:56;11.60;99.90
19888;DHT22;10106;51.332;12.336;2022-11-03T17:13:22;11.60;99.90
19888;DHT22;10106;51.332;12.336;2022-11-03T17:15:48;11.50;99.90
19888;DHT22;10106;51.332;12.336;2022-11-03T17:18:14;11.50;99.90
19888;DHT22;10106;51.332;12.336;2022-11-03T17:20:39;11.50;99.90
19888;DHT22;10106;51.332;12.336;2022-11-03T17:23:05;11.40;99.90
19888;DHT22;10106;51.332;12.336;2022-11-03T17:25:30;11.40;99.90
19888;DHT22;10106;51.332;12.336;2022-11-03T17:27:58;11.40;99.90
19888;DHT22;10106;51.332;12.336;2022-11-03T17:30:26;11.30;99.90
19888;DHT22;10106;51.332;12.336;2022-11-03T17:32:56;11.30;99.90
19888;DHT22;10106;51.332;12.336;2022-11-03T17:35:34;11.30;99.90
19888;DHT22;10106;51.332;12.336;2022-11-03T17:38:01;11.30;99.90
19888;DHT22;10106;51.332;12.336;2022-11-03T17:40:28;11.20;99.90
19888;DHT22;10106;51.332;12.336;2022-11-03T17:42:54;11.20;99.90
19888;DHT22;10106;51.332;12.336;2022-11-03T17:45:21;11.20;99.90
19888;DHT22;10106;51.332;12.336;2022-11-03T17:47:47;11.10;99.90
19888;DHT22;10106;51.332;12.336;2022-11-03T17:50:15;11.10;99.90
19888;DHT22;10106;51.332;12.336;2022-11-03T17:52:42;11.10;99.90
19888;DHT22;10106;51.332;12.336;2022-11-03T17:55:16;11.10;99.90
19888;DHT22;10106;51.332;12.336;2022-11-03T17:57:45;11.00;99.90
19888;DHT22;10106;51.332;12.336;2022-11-03T18:00:15;10.90;99.90
19888;DHT22;10106;51.332;12.336;2022-11-03T18:02:43;10.80;99.90
19888;DHT22;10106;51.332;12.336;2022-11-03T18:05:19;10.80;99.90
19888;DHT22;10106;51.332;12.336;2022-11-03T18:07:46;10.70;99.90
19888;DHT22;10106;51.332;12.336;2022-11-03T18:10:12;10.70;99.90
19888;DHT22;10106;51.332;12.336;2022-11-03T18:12:44;10.60;99.90
19888;DHT22;10106;51.332;12.336;2022-11-03T18:15:30;10.60;99.90
19888;DHT22;10106;51.332;12.336;2022-11-03T18:17:56;10.50;99.90
19888;DHT22;10106;51.332;12.336;2022-11-03T18:20:27;10.50;99.90
19888;DHT22;10106;51.332;12.336;2022-11-03T18:22:56;10.40;99.90
19888;DHT22;10106;51.332;12.336;2022-11-03T18:25:24;10.40;99.90
19888;DHT22;10106;51.332;12.336;2022-11-03T18:27:50;10.40;99.90
19888;DHT22;10106;51.332;12.336;2022-11-03T18:30:16;10.30;99.90
19888;DHT22;10106;51.332;12.336;2022-11-03T18:32:44;10.30;99.90
19888;DHT22;10106;51.332;12.336;2022-11-03T18:35:20;10.30;99.90
19888;DHT22;10106;51.332;12.336;2022-11-03T18:37:46;10.30;99.90
19888;DHT22;10106;51.332;12.336;2022-11-03T18:40:12;10.30;99.90
19888;DHT22;10106;51.332;12.336;2022-11-03T18:42:39;10.30;99.90
19888;DHT22;10106;51.332;12.336;2022-11-03T18:45:10;10.30;99.90
19888;DHT22;10106;51.332;12.336;2022-11-03T18:47:36;10.40;99.90
19888;DHT22;10106;51.332;12.336;2022-11-03T18:50:03;10.40;99.90